Aviation Digital Data Service (ADDS)

Output produced by METARs form (0839 UTC 17 November 2018)
found at http://www.aviationweather.gov/metar/data/
 
EFKU 170820Z AUTO 27011KT CAVOK 05/02 Q1025
EFKU 170750Z AUTO 27012KT CAVOK 05/02 Q1025
EFKU 170720Z AUTO 26013KT CAVOK 05/02 Q1024
EFKU 170650Z AUTO 25009KT CAVOK 05/02 Q1025
EFKU 170620Z AUTO 25009KT CAVOK 05/03 Q1025
EFKU 170550Z AUTO 24008KT CAVOK 05/03 Q1025
EFKU 170520Z AUTO 24014KT CAVOK 05/03 Q1024
EFKU 170450Z AUTO 24011KT CAVOK 05/03 Q1025
EFKU 170420Z AUTO 25009KT CAVOK 05/03 Q1025
EFKU 170350Z AUTO 24009KT 9999 FEW016 06/04 Q1025
EFKU 170320Z AUTO 24010KT 9999 FEW017 06/04 Q1026
EFKU 170250Z AUTO 24010KT 9999 FEW022 06/04 Q1026
EFKU 170220Z AUTO 24009KT CAVOK 06/04 Q1026
EFKU 170150Z AUTO 24009KT CAVOK 06/04 Q1026
EFKU 170120Z AUTO 24010KT 9999 FEW016 BKN087 BKN171 07/04 Q1026
EFKU 170050Z AUTO 24009KT 210V280 CAVOK 07/04 Q1026
EFKU 170020Z AUTO 24008KT 210V310 CAVOK 07/04 Q1026
EFKU 162350Z AUTO 24009KT CAVOK 07/04 Q1026
EFKU 162320Z AUTO 25007KT 9999 FEW016 FEW092 SCT116 BKN174 07/04 Q1026
EFKU 162250Z AUTO 24005KT 9999 FEW016 SCT118 BKN189 07/04 Q1026
EFKU 162220Z AUTO 24006KT 200V300 9999 OVC016 07/04 Q1027
EFKU 162150Z AUTO 24008KT 210V300 9999 OVC016 07/04 Q1027
EFKU 162120Z AUTO 25008KT 200V320 9999 OVC017 07/04 Q1027
EFKU 162050Z AUTO 24008KT 200V280 9999 BKN017 07/04 Q1027
EFKU 162020Z AUTO 24008KT 200V280 9999 BKN017 07/04 Q1027
EFKU 161950Z AUTO 24010KT 9999 BKN018 07/04 Q1027
EFKU 161920Z AUTO 24010KT 9999 BKN019 08/05 Q1027
EFKU 161850Z AUTO 24009KT 9999 OVC019 08/05 Q1027
EFKU 161820Z AUTO 23010KT 210V280 9999 OVC019 08/05 Q1027
EFKU 161750Z AUTO 23010KT 9999 OVC019 08/05 Q1027
EFKU 161720Z AUTO 23010KT 9999 OVC019 08/05 Q1027
EFKU 161650Z AUTO 22010KT 190V260 9999 OVC018 08/05 Q1027
EFKU 161620Z AUTO 23009KT 9999 OVC017 08/05 Q1027
EFKU 161550Z AUTO 22011KT 9999 OVC018 08/05 Q1027
EFKU 161520Z AUTO 22007KT 180V260 9999 OVC017 08/05 Q1027
EFKU 161450Z AUTO 22011KT 9999 BKN016 08/06 Q1027
EFKU 161420Z AUTO 21011KT 9999 BKN016 08/06 Q1027
EFKU 161350Z 21009KT 9999 BKN015 09/06 Q1027
EFKU 161320Z 22011KT 9999 BKN014 09/07 Q1027
EFKU 161250Z 21011KT 9999 OVC015 09/07 Q1027
EFKU 161220Z 19008KT 9999 OVC010 09/07 Q1027
EFKU 161203Z RTD 19008KT 9999 OVC008 09/07 Q1027
EFKU 161120Z 20009KT 9999 OVC007 08/07 Q1028
EFKU 161050Z 21008KT 9999 OVC008 08/07 Q1028
EFKU 161020Z 22009KT 6000 -DZ OVC009 08/07 Q1028
EFKU 160950Z 21008KT 6000 -DZ OVC009 08/07 Q1028
EFKU 160920Z 20007KT 5000 -DZ BR OVC008 08/07 Q1028
EFKU 160850Z 20007KT 6000 OVC007 08/07 Q1028
EFKU 160820Z 20006KT 5000 -DZ OVC009 08/07 Q1028
EFKU 160750Z 20008KT 4000 -DZ OVC008 08/07 Q1028
EFKU 160720Z 20007KT 4000 -DZ OVC008 08/07 Q1028
EFKU 160650Z 20008KT 9999 -DZ OVC008 08/07 Q1028
EFKU 160620Z 19007KT 9999 OVC008 08/07 Q1028
EFKU 160550Z AUTO 20008KT 9999 OVC007 08/07 Q1028
EFKU 160520Z AUTO 21008KT 9999 -SHRA OVC007 08/07 Q1028
EFKU 160450Z AUTO 20007KT 9999 OVC008 08/07 Q1028
EFKU 160420Z AUTO 21006KT 9999 OVC008 08/06 Q1028
EFKU 160350Z AUTO 21008KT 9999 OVC007 07/07 Q1028
EFKU 160320Z AUTO 21007KT 7000 OVC007 07/06 Q1028
EFKU 160250Z AUTO 23008KT 4200 BR OVC007 07/07 Q1028
EFKU 160220Z AUTO 22008KT 190V260 8000 OVC008 07/07 Q1028
EFKU 160150Z AUTO 23008KT 8000 OVC009 08/06 Q1028
EFKU 160120Z AUTO 22007KT 180V250 9999 OVC009 08/06 Q1027
EFKU 160050Z AUTO 21008KT 9999 OVC010 08/06 Q1027
EFKU 160020Z AUTO 20007KT 9999 OVC010 08/06 Q1027
EFKU 152350Z AUTO 21007KT 9999 OVC010 08/06 Q1027
EFKU 152320Z AUTO 21008KT 9999 OVC010 07/06 Q1027
EFKU 152250Z AUTO 21009KT 9999 OVC008 07/06 Q1027
EFKU 152220Z AUTO 21007KT 9999 OVC007 07/06 Q1026
EFKU 152150Z AUTO 19007KT 8000 OVC006 07/06 Q1026
EFKU 152120Z AUTO 21006KT 6000 OVC006 07/06 Q1026
EFKU 152050Z AUTO 21006KT 180V250 7000 OVC006 07/06 Q1026
TAF EFKU 170525Z 1706/1806 27010KT 9999 SCT015 
     BECMG 1716/1718 33013KT 
     TEMPO 1718/1806 34016G26KT